METAR Data
IDs: Format: Raw Decoded Include TAF

Data at: 1006 UTC 20 Sep 2019

Region: TOP
KATL 200952Z 08007KT 10SM FEW250 17/12 A3026 RMK AO2 SLP239 T01720122

KBOS 200954Z 00000KT 10SM FEW250 12/05 A3020 RMK AO2 SLP225 T01220050

KBWI 200954Z 00000KT 10SM SCT250 10/09 A3030 RMK AO2 SLP260 T01000089

KCLE 200951Z 18005KT 10SM SCT060 17/11 A3019 RMK AO2 SLP219 T01720111 $

KCLT 200952Z 35004KT 10SM CLR 13/11 A3031 RMK AO2 SLP257 T01280106

KCVG 200952Z 20007KT 10SM FEW070 21/17 A3015 RMK AO2 SLP199 T02060172

KDCA 200952Z 21005KT 10SM SCT250 14/10 A3031 RMK AO2 SLP262 T01390100

KDEN 200953Z 19014G23KT 10SM FEW150 BKN220 17/11 A2985 RMK AO2 SLP020 T01720106

KDFW 200953Z 16007KT 10SM BKN011 OVC018 24/22 A2990 RMK AO2 SLP116 T02440222

KDTW 200953Z 00000KT 5SM HZ FEW055 BKN220 18/14 A3014 RMK AO2 SLP204 T01830144

KEWR 200951Z 22004KT 10SM FEW180 BKN250 10/08 A3026 RMK AO2 SLP247 T01000083 $

KFLL 200953Z 07011KT 10SM FEW031 FEW036 27/21 A2993 RMK AO2 SLP136 T02670211

KIAD 200952Z 00000KT 10SM SCT250 10/07 A3029 RMK AO2 SLP257 T01000072

KIAH 200953Z 12005KT 8SM SCT020 BKN130 26/24 A2994 RMK AO2 SLP137 SCT V BKN T02560244

KJFK 200951Z 25008KT 10SM SCT250 13/12 A3027 RMK AO2 SLP250 T01330117

KLAS 200956Z 16004KT 10SM CLR 20/M02 A2981 RMK AO2 SLP073 T02001017

KLAX 200953Z 04004KT 10SM FEW012 SCT017 19/14 A2986 RMK AO2 SLP108 T01940144 $

KLGA 200951Z 25003KT 10SM FEW200 BKN250 16/08 A3025 RMK AO2 SLP243 T01560083

KMCO 200953Z 05007KT 10SM FEW030 FEW055 FEW085 23/20 A3005 RMK AO2 SLP173 T02280200

KMDW 200953Z 00000KT 9SM BKN250 21/19 A3009 RMK AO2 SLP181 T02060194

KMEM 200954Z 14008KT 10SM FEW065 BKN160 25/22 A3008 RMK AO2 SLP181 T02500222 $

KMIA 200953Z 05008KT 10SM SCT028 BKN035 BKN075 27/21 A2994 RMK AO2 RAB26E45 SLP139 P0000 T02670206

KMSP 200953Z 11005KT 9SM SCT250 19/18 A3004 RMK AO2 SLP168 T01940183

KORD 200951Z 00000KT 8SM FEW110 OVC250 20/18 A3009 RMK AO2 SLP185 T02000183

KPDX 200953Z 00000KT 10SM BKN032 BKN045 OVC070 16/14 A3009 RMK AO2 SLP187 T01560139

KPHL 200954Z 24005KT 10SM SCT300 13/09 A3029 RMK SLP258 T01280089

KPHX 200951Z 10005KT 10SM CLR 25/03 A2973 RMK AO2 SLP046 T02500033

KPIT 200951Z 00000KT 10SM CLR 12/09 A3023 RMK AO2 SLP241 T01170089

KSAN 200951Z 10004KT 10SM FEW010 FEW025 18/13 A2989 RMK AO2 SLP121 T01830128

KSEA 200953Z 17005KT 10SM BKN006 BKN034 OVC041 15/13 A3007 RMK AO2 RAB27E48 SLP185 P0000 T01500128

KSFO 200956Z 00000KT 10SM CLR 16/11 A2993 RMK AO2 SLP134 T01610111

KSLC 200954Z 32003KT 10SM SCT050 BKN120 13/04 A2988 RMK AO2 SLP077 T01330039

KSTL 200951Z VRB03KT 10SM FEW250 22/18 A3007 RMK AO2 SLP169 T02220183 $

KTPA 200953Z 03008KT 10SM CLR 23/20 A3004 RMK AO2 SLP173 T02280200 $